createdAt,value
2019-05-15T00:01:28.599Z,7.70
2019-05-15T00:04:02.128Z,7.70
2019-05-15T00:06:35.794Z,7.70
2019-05-15T00:09:09.674Z,7.70
2019-05-15T00:11:43.356Z,7.70
2019-05-15T00:14:18.224Z,7.70
2019-05-15T00:16:51.918Z,7.70
2019-05-15T00:19:25.612Z,7.70
2019-05-15T00:21:59.184Z,7.80
2019-05-15T00:24:32.859Z,7.80
2019-05-15T00:27:08.203Z,7.70
2019-05-15T00:29:41.775Z,7.70
2019-05-15T00:32:15.536Z,7.80
2019-05-15T00:34:49.212Z,7.80
2019-05-15T00:37:23.653Z,7.80
2019-05-15T00:39:59.193Z,7.80
2019-05-15T00:42:32.750Z,7.80
2019-05-15T00:45:09.721Z,7.80
2019-05-15T00:47:44.303Z,7.90
2019-05-15T00:50:18.531Z,7.90
2019-05-15T00:52:52.244Z,7.90
2019-05-15T00:55:25.932Z,7.90
2019-05-15T00:57:59.602Z,7.90
2019-05-15T01:00:48.498Z,7.90
2019-05-15T01:03:22.561Z,7.90
2019-05-15T01:05:58.496Z,7.90
2019-05-15T01:08:31.592Z,8.00
2019-05-15T01:11:05.147Z,7.90
2019-05-15T01:13:39.136Z,8.00
2019-05-15T01:16:14.419Z,8.00
2019-05-15T01:18:49.170Z,7.90
2019-05-15T01:21:22.859Z,8.00
2019-05-15T01:23:58.825Z,7.90
2019-05-15T01:26:31.802Z,7.90
2019-05-15T01:29:05.382Z,8.00
2019-05-15T01:31:39.041Z,8.00
2019-05-15T01:34:13.643Z,8.00
2019-05-15T01:36:48.932Z,8.10
2019-05-15T01:39:22.883Z,8.10
2019-05-15T01:41:58.425Z,8.00
2019-05-15T01:44:31.762Z,8.10
2019-05-15T01:47:05.310Z,8.00
2019-05-15T01:49:38.911Z,8.10
2019-05-15T01:52:12.590Z,8.00
2019-05-15T01:54:48.709Z,8.10
2019-05-15T01:57:21.902Z,8.10
2019-05-15T01:59:58.267Z,8.20
2019-05-15T02:02:31.204Z,8.10
2019-05-15T02:05:05.600Z,8.20
2019-05-15T02:07:39.411Z,8.10
2019-05-15T02:10:14.135Z,8.20
2019-05-15T02:12:48.161Z,8.10
2019-05-15T02:15:21.933Z,8.20
2019-05-15T02:17:55.649Z,8.20
2019-05-15T02:20:29.330Z,8.30
2019-05-15T02:23:03.008Z,8.20
2019-05-15T02:25:38.742Z,8.20
2019-05-15T02:28:12.649Z,8.20
2019-05-15T02:30:50.086Z,8.20
2019-05-15T02:33:22.160Z,8.20
2019-05-15T02:35:55.865Z,8.20
2019-05-15T02:38:29.934Z,8.20
2019-05-15T02:41:03.803Z,8.20
2019-05-15T02:43:39.016Z,8.30
2019-05-15T02:46:12.764Z,8.20
2019-05-15T02:48:48.945Z,8.30
2019-05-15T02:51:22.530Z,8.20
2019-05-15T02:53:58.581Z,8.20
2019-05-15T02:56:31.542Z,8.30
2019-05-15T02:59:05.210Z,8.20
2019-05-15T03:08:49.570Z,8.20
2019-05-15T03:11:23.301Z,8.20
2019-05-15T03:13:59.269Z,8.30
2019-05-15T03:16:32.008Z,8.30
2019-05-15T03:19:05.604Z,8.30
2019-05-15T03:21:40.317Z,8.30
2019-05-15T03:24:13.972Z,8.40
2019-05-15T03:26:49.655Z,8.40
2019-05-15T03:29:22.914Z,8.40
2019-05-15T03:32:13.422Z,8.40
2019-05-15T03:34:38.008Z,8.40
2019-05-15T03:37:11.636Z,8.40
2019-05-15T03:39:46.075Z,8.50
2019-05-15T03:42:19.109Z,8.50
2019-05-15T03:44:52.855Z,8.50
2019-05-15T03:47:29.949Z,8.50
2019-05-15T03:50:02.816Z,8.50
2019-05-15T03:52:39.477Z,8.50
2019-05-15T03:55:11.786Z,8.50
2019-05-15T03:57:45.378Z,8.60
2019-05-15T04:00:20.171Z,8.60
2019-05-15T04:02:53.752Z,8.60
2019-05-15T04:05:29.356Z,8.60
2019-05-15T04:08:02.525Z,8.70
2019-05-15T04:10:39.467Z,8.70
2019-05-15T04:13:14.512Z,8.70
2019-05-15T04:15:50.249Z,8.70
2019-05-15T04:18:23.769Z,8.60
2019-05-15T04:21:00.011Z,8.70
2019-05-15T04:23:32.833Z,8.60
2019-05-15T04:26:09.157Z,8.60
2019-05-15T04:28:43.733Z,8.60
2019-05-15T04:31:19.406Z,8.60
2019-05-15T04:33:52.506Z,8.60
2019-05-15T04:36:29.380Z,8.60
2019-05-15T04:39:01.306Z,8.60
2019-05-15T04:41:39.041Z,8.60
2019-05-15T04:44:11.490Z,8.60
2019-05-15T04:46:45.079Z,8.70
2019-05-15T04:49:19.268Z,8.70
2019-05-15T04:51:54.103Z,8.70
2019-05-15T04:54:28.842Z,8.70
2019-05-15T04:57:02.594Z,8.70
2019-05-15T04:59:38.739Z,8.60
2019-05-15T05:02:16.886Z,8.60
2019-05-15T05:04:49.319Z,8.60
2019-05-15T05:07:23.251Z,8.70
2019-05-15T05:09:59.438Z,8.60
2019-05-15T05:12:32.053Z,8.60
2019-05-15T05:15:08.444Z,8.70
2019-05-15T05:17:41.692Z,8.60
2019-05-15T05:20:17.919Z,8.60
2019-05-15T05:22:51.670Z,8.60
2019-05-15T05:25:25.216Z,8.60
2019-05-15T05:27:58.798Z,8.70
2019-05-15T05:30:32.483Z,8.70
2019-05-15T05:33:09.085Z,8.70
2019-05-15T05:35:42.980Z,8.80
2019-05-15T05:38:19.011Z,8.80
2019-05-15T05:43:40.602Z,8.80
2019-05-15T05:46:14.162Z,8.80
2019-05-15T05:48:48.941Z,8.70
2019-05-15T05:51:22.640Z,8.80
2019-05-15T05:53:56.193Z,8.80
2019-05-15T05:56:29.910Z,8.80
2019-05-15T05:59:05.761Z,8.90
2019-05-15T06:01:48.400Z,8.90
2019-05-15T06:04:21.594Z,8.90
2019-05-15T06:07:07.173Z,9.00
2019-05-15T06:09:30.907Z,9.00
2019-05-15T06:12:04.500Z,9.00
2019-05-15T06:14:38.191Z,9.00
2019-05-15T06:17:11.713Z,9.10
2019-05-15T06:19:45.334Z,9.10
2019-05-15T06:22:19.445Z,9.20
2019-05-15T06:24:53.024Z,9.20
2019-05-15T06:27:27.988Z,9.20
2019-05-15T06:30:03.110Z,9.20
2019-05-15T06:32:39.475Z,9.30
2019-05-15T06:35:12.519Z,9.30
2019-05-15T06:37:48.405Z,9.30
2019-05-15T06:40:22.259Z,9.40
2019-05-15T06:42:55.653Z,9.40
2019-05-15T06:45:29.221Z,9.40
2019-05-15T06:48:02.773Z,9.40
2019-05-15T06:50:40.072Z,9.50
2019-05-15T06:53:13.550Z,9.50
2019-05-15T06:55:48.916Z,9.50
2019-05-15T06:58:25.139Z,9.50
2019-05-15T07:00:59.283Z,9.60
2019-05-15T07:03:33.083Z,9.60
2019-05-15T07:06:09.078Z,9.60
2019-05-15T07:08:41.882Z,9.70
2019-05-15T07:11:16.134Z,9.70
2019-05-15T07:13:49.835Z,9.80
2019-05-15T07:16:23.467Z,9.70
2019-05-15T07:18:59.844Z,9.80
2019-05-15T07:21:33.448Z,9.90
2019-05-15T07:24:09.157Z,9.90
2019-05-15T07:26:42.291Z,9.80
2019-05-15T07:29:15.831Z,9.80
2019-05-15T07:31:49.629Z,9.90
2019-05-15T07:34:24.223Z,9.90
2019-05-15T07:36:59.122Z,9.90
2019-05-15T07:39:32.938Z,9.90
2019-05-15T07:42:08.426Z,9.90
2019-05-15T07:44:41.726Z,9.90
2019-05-15T07:47:15.463Z,9.90
2019-05-15T07:49:49.373Z,10.00
2019-05-15T07:52:22.940Z,10.00
2019-05-15T07:54:58.190Z,9.90
2019-05-15T07:57:32.072Z,10.00
2019-05-15T08:00:12.242Z,10.00
2019-05-15T08:02:47.845Z,10.00
2019-05-15T08:05:21.382Z,9.90
2019-05-15T08:07:54.926Z,9.90
2019-05-15T08:10:28.722Z,10.00
2019-05-15T08:13:02.422Z,10.00
2019-05-15T08:15:38.075Z,10.10
2019-05-15T08:18:12.930Z,10.00
2019-05-15T08:20:49.038Z,10.00
2019-05-15T08:23:22.413Z,10.00
2019-05-15T08:25:57.907Z,10.00
2019-05-15T08:28:31.622Z,10.00
2019-05-15T08:31:09.238Z,10.00
2019-05-15T08:33:40.504Z,10.00
2019-05-15T08:36:14.202Z,10.10
2019-05-15T08:38:48.564Z,10.10
2019-05-15T08:41:22.372Z,10.00
2019-05-15T08:43:57.895Z,10.10
2019-05-15T08:46:31.563Z,10.10
2019-05-15T08:49:05.271Z,10.20
2019-05-15T08:51:39.795Z,10.30
2019-05-15T08:54:13.362Z,10.40
2019-05-15T08:56:48.427Z,10.30
2019-05-15T08:59:22.093Z,10.30
2019-05-15T09:01:55.686Z,10.30
2019-05-15T09:04:34.455Z,10.40
2019-05-15T09:07:04.739Z,10.30
2019-05-15T09:09:38.530Z,10.40
2019-05-15T09:12:12.143Z,10.60
2019-05-15T09:14:45.761Z,10.50
2019-05-15T09:17:19.439Z,10.40
2019-05-15T09:19:56.022Z,10.30
2019-05-15T09:22:29.174Z,10.30
2019-05-15T09:25:03.024Z,10.30
2019-05-15T09:27:38.282Z,10.30
2019-05-15T09:30:13.636Z,10.30
2019-05-15T09:32:48.403Z,10.40
2019-05-15T09:35:23.102Z,10.40
2019-05-15T09:37:58.339Z,10.30
2019-05-15T09:40:45.254Z,10.30
2019-05-15T09:43:10.919Z,10.40
2019-05-15T09:45:44.065Z,10.50
2019-05-15T09:48:19.758Z,10.60
2019-05-15T09:50:54.083Z,10.70
2019-05-15T09:53:28.462Z,10.80
2019-05-15T09:56:02.372Z,10.80
2019-05-15T09:58:38.126Z,10.80
2019-05-15T10:01:13.165Z,10.80
2019-05-15T10:03:48.407Z,10.80
2019-05-15T10:06:22.160Z,10.80
2019-05-15T10:08:55.875Z,10.80
2019-05-15T10:11:30.469Z,10.80
2019-05-15T10:14:04.081Z,10.70
2019-05-15T10:16:38.667Z,10.70
2019-05-15T10:19:12.314Z,10.80
2019-05-15T10:21:52.486Z,10.80
2019-05-15T10:24:21.235Z,10.80
2019-05-15T10:26:57.973Z,10.90
2019-05-15T10:29:30.453Z,10.90
2019-05-15T10:32:04.075Z,10.90
2019-05-15T10:34:58.636Z,10.90
2019-05-15T10:37:33.716Z,10.90
2019-05-15T10:40:20.401Z,10.90
2019-05-15T10:42:54.273Z,10.90
2019-05-15T10:45:29.576Z,10.90
2019-05-15T10:48:03.445Z,10.80
2019-05-15T10:50:38.792Z,10.80
2019-05-15T10:53:12.535Z,10.90
2019-05-15T10:55:55.776Z,10.90
2019-05-15T10:58:29.383Z,11.00
2019-05-15T11:01:04.175Z,11.00
2019-05-15T11:43:22.866Z,11.00
2019-05-15T11:45:58.778Z,11.00
2019-05-15T11:48:31.844Z,10.90
2019-05-15T11:51:05.755Z,10.90
2019-05-15T11:53:39.925Z,11.00
2019-05-15T11:56:13.697Z,11.00
2019-05-15T13:04:52.319Z,10.90
2019-05-15T13:07:26.025Z,10.80
2019-05-15T13:09:59.879Z,10.80
2019-05-15T13:12:33.560Z,10.80
2019-05-15T13:15:09.241Z,10.70
2019-05-15T13:17:42.914Z,10.70
2019-05-15T13:20:18.451Z,10.70
2019-05-15T13:22:52.177Z,10.80
2019-05-15T13:25:28.364Z,10.70
2019-05-15T13:28:01.994Z,10.70
2019-05-15T13:30:40.846Z,10.60
2019-05-15T13:33:11.567Z,10.60
2019-05-15T13:35:45.713Z,10.50
2019-05-15T13:38:19.394Z,10.60
2019-05-15T13:40:53.120Z,10.50
2019-05-15T13:43:29.289Z,10.50
2019-05-15T13:46:03.850Z,10.40
2019-05-15T13:48:38.585Z,10.50
2019-05-15T13:51:12.534Z,10.50
2019-05-15T13:53:49.074Z,10.50
2019-05-15T13:56:22.261Z,10.40
2019-05-15T13:58:58.696Z,10.50
2019-05-15T14:01:32.578Z,10.40
2019-05-15T14:04:08.364Z,10.40
2019-05-15T14:06:42.106Z,10.30
2019-05-15T14:09:15.694Z,10.30
2019-05-15T14:11:49.809Z,10.30
2019-05-15T14:14:23.508Z,10.40
2019-05-15T14:16:59.259Z,10.40
2019-05-15T14:19:33.491Z,10.50
2019-05-15T14:22:08.019Z,10.50
2019-05-15T14:24:41.790Z,10.50
2019-05-15T14:27:15.370Z,10.50
2019-05-15T14:29:49.008Z,10.50
2019-05-15T14:32:35.501Z,10.50
2019-05-15T14:35:02.676Z,10.60
2019-05-15T14:37:36.321Z,10.50
2019-05-15T14:40:13.082Z,10.50
2019-05-15T14:42:48.640Z,10.50
2019-05-15T14:45:22.085Z,10.50
2019-05-15T14:47:58.150Z,10.50
2019-05-15T14:50:31.927Z,10.50
2019-05-15T14:53:06.285Z,10.50
2019-05-15T14:55:43.926Z,10.40
2019-05-15T14:58:15.515Z,10.40
2019-05-15T15:00:49.967Z,10.40
2019-05-15T15:03:23.924Z,10.40
2019-05-15T15:05:58.248Z,10.40
2019-05-15T15:08:32.795Z,10.40
2019-05-15T15:11:08.803Z,10.50
2019-05-15T15:13:42.182Z,10.50
2019-05-15T15:16:19.120Z,10.60
2019-05-15T15:18:51.112Z,10.60
2019-05-15T15:21:24.863Z,10.60
2019-05-15T15:23:58.843Z,10.60
2019-05-15T15:26:32.503Z,10.60
2019-05-15T15:29:10.563Z,10.60
2019-05-15T15:31:44.133Z,10.60
2019-05-15T15:34:19.599Z,10.50
2019-05-15T15:36:53.204Z,10.50
2019-05-15T15:39:28.094Z,10.50
2019-05-15T15:42:01.959Z,10.50
2019-05-15T15:44:37.980Z,10.60
2019-05-15T15:47:11.227Z,10.60
2019-05-15T15:49:48.018Z,10.50
2019-05-15T15:52:22.692Z,10.50
2019-05-15T15:54:57.473Z,10.50
2019-05-15T15:57:31.309Z,10.40
2019-05-15T16:00:08.795Z,10.50
2019-05-15T16:02:42.732Z,10.50
2019-05-15T16:05:18.872Z,10.50
2019-05-15T16:07:51.889Z,10.40
2019-05-15T16:10:25.691Z,10.50
2019-05-15T16:13:00.773Z,10.40
2019-05-15T16:15:34.365Z,10.40
2019-05-15T16:18:15.070Z,10.40
2019-05-15T16:20:54.498Z,10.40
2019-05-15T16:23:28.451Z,10.40
2019-05-15T16:26:02.459Z,10.40
2019-05-15T16:28:39.078Z,10.40
2019-05-15T16:31:12.714Z,10.40
2019-05-15T16:33:48.034Z,9.90
2019-05-15T16:36:22.530Z,10.30
2019-05-15T16:39:05.199Z,10.30
2019-05-15T16:41:31.494Z,10.40
2019-05-15T16:44:05.134Z,10.40
2019-05-15T16:46:39.244Z,10.40
2019-05-15T16:49:12.953Z,10.40
2019-05-15T16:51:48.999Z,10.40
2019-05-15T16:54:21.894Z,10.40
2019-05-15T16:56:55.568Z,10.50
2019-05-15T16:59:35.550Z,10.50
2019-05-15T17:02:04.449Z,10.50
2019-05-15T17:04:38.294Z,10.50
2019-05-15T17:07:13.024Z,10.50
2019-05-15T17:09:48.081Z,10.50
2019-05-15T17:12:21.811Z,10.50
2019-05-15T17:14:58.081Z,10.50
2019-05-15T17:17:30.769Z,10.40
2019-05-15T17:20:06.175Z,10.40
2019-05-15T17:22:39.793Z,10.50
2019-05-15T17:25:14.698Z,10.50
2019-05-15T17:27:48.293Z,10.50
2019-05-15T17:30:23.617Z,10.40
2019-05-15T17:32:57.421Z,10.40
2019-05-15T17:35:31.113Z,10.40
2019-05-15T17:38:04.747Z,10.30
2019-05-15T17:40:39.787Z,10.40
2019-05-15T17:43:13.359Z,10.30
2019-05-15T17:45:48.143Z,10.30
2019-05-15T17:48:21.870Z,10.30
2019-05-15T17:50:58.290Z,10.30
2019-05-15T17:53:31.630Z,10.30
2019-05-15T17:56:05.282Z,10.30
2019-05-15T17:58:38.878Z,10.30
2019-05-15T18:01:12.797Z,10.30
2019-05-15T18:03:48.527Z,10.30
2019-05-15T18:06:23.096Z,10.30
2019-05-15T18:08:59.324Z,10.30
2019-05-15T18:11:33.492Z,10.30
2019-05-15T18:14:08.907Z,10.20
2019-05-15T18:16:42.877Z,10.30
2019-05-15T18:19:18.633Z,10.30
2019-05-15T18:21:51.651Z,10.30
2019-05-15T18:24:25.321Z,10.30
2019-05-15T18:26:59.142Z,10.30
2019-05-15T18:29:32.902Z,10.30
2019-05-15T18:32:08.680Z,10.30
2019-05-15T18:34:42.621Z,10.20
2019-05-15T18:37:16.410Z,10.20
2019-05-15T18:40:01.145Z,10.20
2019-05-15T18:42:29.093Z,10.10
2019-05-15T18:45:02.025Z,10.00
2019-05-15T18:47:38.896Z,10.10
2019-05-15T18:50:14.128Z,10.10
2019-05-15T18:52:48.809Z,10.00
2019-05-15T18:55:22.502Z,10.10
2019-05-15T18:57:58.469Z,10.10
2019-05-15T19:00:36.036Z,10.10
2019-05-15T19:03:18.773Z,10.00
2019-05-15T19:05:43.994Z,10.00
2019-05-15T19:08:18.866Z,10.10
2019-05-15T19:10:53.620Z,10.10
2019-05-15T19:13:28.574Z,10.10
2019-05-15T19:16:02.150Z,10.10
2019-05-15T19:18:35.759Z,10.10
2019-05-15T19:21:09.353Z,10.10
2019-05-15T19:23:42.934Z,10.10
2019-05-15T19:26:18.271Z,10.10
2019-05-15T19:28:53.595Z,10.10
2019-05-15T19:31:30.515Z,10.20
2019-05-15T19:34:02.562Z,10.20
2019-05-15T19:36:38.132Z,10.20
2019-05-15T19:39:11.475Z,10.20
2019-05-15T19:41:45.067Z,10.20
2019-05-15T19:44:18.805Z,10.20
2019-05-15T19:46:52.385Z,10.20
2019-05-15T19:49:26.029Z,10.20
2019-05-15T19:51:59.632Z,10.10
2019-05-15T19:54:33.269Z,10.20
2019-05-15T19:57:08.122Z,10.20
2019-05-15T19:59:44.045Z,10.10
2019-05-15T20:02:19.369Z,10.20
2019-05-15T20:04:53.005Z,10.20
2019-05-15T20:07:28.650Z,10.20
2019-05-15T20:10:02.420Z,10.20
2019-05-15T20:12:38.910Z,10.20
2019-05-15T20:15:14.215Z,10.20
2019-05-15T20:17:47.960Z,10.20
2019-05-15T20:20:21.640Z,10.20
2019-05-15T20:22:55.417Z,10.30
2019-05-15T20:25:32.062Z,10.30
2019-05-15T20:28:08.272Z,10.20
2019-05-15T20:30:41.089Z,10.20
2019-05-15T20:33:17.976Z,10.10
2019-05-15T20:35:51.763Z,10.10
2019-05-15T20:38:25.312Z,10.20
2019-05-15T20:40:59.721Z,10.20
2019-05-15T20:43:38.443Z,10.20
2019-05-15T20:46:14.361Z,10.20
2019-05-15T20:48:48.798Z,10.20
2019-05-15T20:51:22.611Z,10.20
2019-05-15T20:53:57.825Z,10.20
2019-05-15T20:56:33.352Z,10.20
2019-05-15T20:59:11.390Z,10.20
2019-05-15T21:01:45.073Z,10.10
2019-05-15T21:04:22.461Z,10.20
2019-05-15T21:06:55.375Z,10.20
2019-05-15T21:09:30.706Z,10.10
2019-05-15T21:12:04.493Z,10.10
2019-05-15T21:14:40.091Z,10.20
2019-05-15T21:17:14.296Z,10.10
2019-05-15T21:19:49.111Z,10.20
2019-05-15T21:22:23.784Z,10.10
2019-05-15T21:24:57.459Z,10.10
2019-05-15T21:27:43.322Z,10.20
2019-05-15T21:30:18.891Z,10.10
2019-05-15T21:32:52.887Z,10.10
2019-05-15T21:35:27.691Z,10.20
2019-05-15T21:40:52.796Z,10.20
2019-05-15T21:43:26.530Z,10.20
2019-05-15T21:46:08.011Z,10.10
2019-05-15T21:48:41.605Z,10.10
2019-05-15T21:51:15.178Z,10.10
2019-05-15T21:53:49.740Z,10.10
2019-05-15T21:56:23.443Z,10.10
2019-05-15T21:58:58.187Z,10.10
2019-05-15T22:01:32.452Z,10.10
2019-05-15T22:04:07.619Z,10.10
2019-05-15T22:06:41.225Z,10.10
2019-05-15T22:09:18.364Z,10.00
2019-05-15T22:11:51.779Z,10.10
2019-05-15T22:14:35.033Z,10.10
2019-05-15T22:17:09.664Z,10.10
2019-05-15T22:19:44.933Z,10.10
2019-05-15T22:22:18.641Z,10.20
2019-05-15T22:24:52.195Z,10.10
2019-05-15T22:27:25.774Z,10.10
2019-05-15T22:29:59.331Z,10.10
2019-05-15T22:32:33.441Z,10.10
2019-05-15T22:35:13.613Z,10.20
2019-05-15T22:37:45.387Z,10.10
2019-05-15T22:40:38.028Z,10.10
2019-05-15T22:43:11.987Z,10.10
2019-05-15T22:45:48.304Z,10.00
2019-05-15T22:48:22.268Z,10.00
2019-05-15T22:50:55.749Z,10.00
2019-05-15T22:53:29.347Z,9.90
2019-05-15T22:56:03.039Z,9.90
2019-05-15T22:58:38.550Z,9.90
2019-05-15T23:01:11.872Z,10.00
2019-05-15T23:03:47.728Z,9.90
2019-05-15T23:06:20.774Z,9.90
2019-05-15T23:08:54.511Z,10.00
2019-05-15T23:11:29.935Z,10.00
2019-05-15T23:14:03.512Z,9.90
2019-05-15T23:16:38.984Z,9.90
2019-05-15T23:19:13.313Z,10.00
2019-05-15T23:21:48.656Z,10.00
2019-05-15T23:24:22.751Z,10.00
2019-05-15T23:26:58.295Z,10.00
2019-05-15T23:29:32.254Z,9.90
2019-05-15T23:32:07.789Z,10.00
2019-05-15T23:34:41.061Z,10.00
2019-05-15T23:37:14.721Z,9.90
2019-05-15T23:39:48.760Z,9.80
2019-05-15T23:42:22.291Z,9.80
2019-05-15T23:44:58.945Z,9.80
2019-05-15T23:47:45.884Z,9.80
2019-05-15T23:50:19.462Z,9.80
2019-05-15T23:52:54.024Z,9.90
2019-05-15T23:55:28.560Z,9.90
2019-05-15T23:58:02.713Z,9.90
